sensor_id;sensor_type;location;lat;lon;timestamp;pressure;altitude;pressure_sealevel;temperature;humidity
35577;BME280;21680;52.400;16.920;2023-01-24T00:02:23;103058.88;;;0.27;95.36
35577;BME280;21680;52.400;16.920;2023-01-24T00:04:48;103061.38;;;0.28;95.24
35577;BME280;21680;52.400;16.920;2023-01-24T00:07:14;103062.61;;;0.28;95.23
35577;BME280;21680;52.400;16.920;2023-01-24T00:09:39;103064.29;;;0.30;95.30
35577;BME280;21680;52.400;16.920;2023-01-24T00:12:05;103069.37;;;0.30;95.14
35577;BME280;21680;52.400;16.920;2023-01-24T00:14:30;103071.69;;;0.26;95.20
35577;BME280;21680;52.400;16.920;2023-01-24T00:16:55;103070.63;;;0.26;95.23
35577;BME280;21680;52.400;16.920;2023-01-24T00:19:20;103073.52;;;0.28;95.32
35577;BME280;21680;52.400;16.920;2023-01-24T00:21:46;103065.55;;;0.27;95.13
35577;BME280;21680;52.400;16.920;2023-01-24T00:24:12;103064.88;;;0.23;95.08
35577;BME280;21680;52.400;16.920;2023-01-24T00:26:37;103062.83;;;0.20;95.12
35577;BME280;21680;52.400;16.920;2023-01-24T00:29:02;103069.48;;;0.19;95.21
35577;BME280;21680;52.400;16.920;2023-01-24T00:31:27;103065.41;;;0.23;95.25
35577;BME280;21680;52.400;16.920;2023-01-24T00:33:53;103066.11;;;0.28;95.36
35577;BME280;21680;52.400;16.920;2023-01-24T00:36:18;103067.61;;;0.26;95.34
35577;BME280;21680;52.400;16.920;2023-01-24T00:38:43;103067.84;;;0.27;95.21
35577;BME280;21680;52.400;16.920;2023-01-24T00:41:09;103068.23;;;0.28;95.31
35577;BME280;21680;52.400;16.920;2023-01-24T00:43:34;103069.06;;;0.27;95.15
35577;BME280;21680;52.400;16.920;2023-01-24T00:46:00;103069.81;;;0.23;95.12
35577;BME280;21680;52.400;16.920;2023-01-24T00:48:25;103072.19;;;0.21;95.24
35577;BME280;21680;52.400;16.920;2023-01-24T00:50:51;103074.08;;;0.20;95.22
35577;BME280;21680;52.400;16.920;2023-01-24T00:53:16;103075.16;;;0.20;95.28
35577;BME280;21680;52.400;16.920;2023-01-24T00:55:44;103071.88;;;0.22;95.31
35577;BME280;21680;52.400;16.920;2023-01-24T00:58:10;103074.16;;;0.22;95.15
35577;BME280;21680;52.400;16.920;2023-01-24T01:00:36;103071.84;;;0.21;95.24
35577;BME280;21680;52.400;16.920;2023-01-24T01:03:04;103075.02;;;0.21;95.15
35577;BME280;21680;52.400;16.920;2023-01-24T01:05:30;103073.92;;;0.20;95.17
35577;BME280;21680;52.400;16.920;2023-01-24T01:07:55;103076.04;;;0.20;95.26
35577;BME280;21680;52.400;16.920;2023-01-24T01:10:21;103074.20;;;0.23;95.29
35577;BME280;21680;52.400;16.920;2023-01-24T01:12:46;103072.88;;;0.20;94.95
35577;BME280;21680;52.400;16.920;2023-01-24T01:15:11;103071.01;;;0.18;95.13
35577;BME280;21680;52.400;16.920;2023-01-24T01:17:37;103070.35;;;0.19;95.25
35577;BME280;21680;52.400;16.920;2023-01-24T01:20:03;103069.58;;;0.17;95.07
35577;BME280;21680;52.400;16.920;2023-01-24T01:22:28;103069.50;;;0.15;95.11
35577;BME280;21680;52.400;16.920;2023-01-24T01:24:54;103069.92;;;0.17;95.25
35577;BME280;21680;52.400;16.920;2023-01-24T01:27:19;103075.23;;;0.18;95.13
35577;BME280;21680;52.400;16.920;2023-01-24T01:29:44;103075.71;;;0.17;95.23
35577;BME280;21680;52.400;16.920;2023-01-24T01:32:10;103071.29;;;0.16;95.09
35577;BME280;21680;52.400;16.920;2023-01-24T01:34:35;103070.70;;;0.15;95.08
35577;BME280;21680;52.400;16.920;2023-01-24T01:37:00;103072.01;;;0.12;95.08
35577;BME280;21680;52.400;16.920;2023-01-24T01:39:26;103068.13;;;0.11;95.14
35577;BME280;21680;52.400;16.920;2023-01-24T01:41:52;103063.92;;;0.12;95.18
35577;BME280;21680;52.400;16.920;2023-01-24T01:44:18;103064.30;;;0.12;95.24
35577;BME280;21680;52.400;16.920;2023-01-24T01:50:03;103072.30;;;0.19;95.23
35577;BME280;21680;52.400;16.920;2023-01-24T01:52:37;103068.56;;;0.18;95.05
35577;BME280;21680;52.400;16.920;2023-01-24T01:55:09;103065.83;;;0.16;95.10
35577;BME280;21680;52.400;16.920;2023-01-24T01:57:37;103067.75;;;0.15;95.13
35577;BME280;21680;52.400;16.920;2023-01-24T02:00:15;103071.70;;;0.17;95.25
35577;BME280;21680;52.400;16.920;2023-01-24T02:02:44;103066.52;;;0.20;95.21
35577;BME280;21680;52.400;16.920;2023-01-24T02:05:14;103063.89;;;0.20;95.08
35577;BME280;21680;52.400;16.920;2023-01-24T02:07:56;103059.48;;;0.20;95.14
35577;BME280;21680;52.400;16.920;2023-01-24T02:10:24;103056.50;;;0.20;95.26
35577;BME280;21680;52.400;16.920;2023-01-24T02:13:11;103058.70;;;0.22;95.28
35577;BME280;21680;52.400;16.920;2023-01-24T02:15:36;103059.52;;;0.21;95.14
35577;BME280;21680;52.400;16.920;2023-01-24T02:18:21;103059.27;;;0.19;94.96
35577;BME280;21680;52.400;16.920;2023-01-24T02:20:47;103059.02;;;0.17;95.04
35577;BME280;21680;52.400;16.920;2023-01-24T02:26:09;103057.48;;;0.13;95.08
35577;BME280;21680;52.400;16.920;2023-01-24T02:28:35;103055.21;;;0.14;95.13
35577;BME280;21680;52.400;16.920;2023-01-24T02:31:03;103056.52;;;0.16;95.34
35577;BME280;21680;52.400;16.920;2023-01-24T02:33:29;103059.84;;;0.15;95.11
35577;BME280;21680;52.400;16.920;2023-01-24T02:36:16;103062.66;;;0.16;95.09
35577;BME280;21680;52.400;16.920;2023-01-24T02:38:47;103067.98;;;0.17;95.36
35577;BME280;21680;52.400;16.920;2023-01-24T02:41:14;103065.77;;;0.18;95.25
35577;BME280;21680;52.400;16.920;2023-01-24T02:43:46;103063.96;;;0.18;95.12
35577;BME280;21680;52.400;16.920;2023-01-24T02:46:14;103062.39;;;0.17;95.20
35577;BME280;21680;52.400;16.920;2023-01-24T02:48:39;103053.91;;;0.17;95.16
35577;BME280;21680;52.400;16.920;2023-01-24T02:51:04;103052.41;;;0.14;95.01
35577;BME280;21680;52.400;16.920;2023-01-24T02:53:49;103059.05;;;0.13;95.05
35577;BME280;21680;52.400;16.920;2023-01-24T02:56:14;103060.59;;;0.12;95.04
35577;BME280;21680;52.400;16.920;2023-01-24T02:58:58;103062.86;;;0.12;95.05
35577;BME280;21680;52.400;16.920;2023-01-24T03:01:23;103063.83;;;0.09;95.10
35577;BME280;21680;52.400;16.920;2023-01-24T03:03:49;103063.68;;;0.10;95.16
35577;BME280;21680;52.400;16.920;2023-01-24T03:06:17;103065.81;;;0.11;95.26
35577;BME280;21680;52.400;16.920;2023-01-24T03:08:43;103069.79;;;0.13;95.06
35577;BME280;21680;52.400;16.920;2023-01-24T03:11:10;103070.35;;;0.14;95.01
35577;BME280;21680;52.400;16.920;2023-01-24T03:13:36;103072.15;;;0.15;95.14
35577;BME280;21680;52.400;16.920;2023-01-24T03:16:20;103073.78;;;0.17;95.15
35577;BME280;21680;52.400;16.920;2023-01-24T03:19:04;103078.21;;;0.18;94.97
35577;BME280;21680;52.400;16.920;2023-01-24T03:21:49;103076.91;;;0.20;95.16
35577;BME280;21680;52.400;16.920;2023-01-24T03:24:33;103079.73;;;0.20;95.20
35577;BME280;21680;52.400;16.920;2023-01-24T03:27:17;103082.27;;;0.18;94.91
35577;BME280;21680;52.400;16.920;2023-01-24T03:30:03;103087.17;;;0.17;95.07
35577;BME280;21680;52.400;16.920;2023-01-24T03:32:47;103089.01;;;0.15;94.88
35577;BME280;21680;52.400;16.920;2023-01-24T03:35:32;103085.08;;;0.13;95.02
35577;BME280;21680;52.400;16.920;2023-01-24T03:37:58;103089.88;;;0.15;94.95
35577;BME280;21680;52.400;16.920;2023-01-24T03:40:42;103088.20;;;0.17;94.99
35577;BME280;21680;52.400;16.920;2023-01-24T03:43:08;103086.46;;;0.17;95.02
35577;BME280;21680;52.400;16.920;2023-01-24T03:45:35;103081.94;;;0.19;95.01
35577;BME280;21680;52.400;16.920;2023-01-24T03:48:04;103079.73;;;0.21;95.02
35577;BME280;21680;52.400;16.920;2023-01-24T03:50:37;103078.75;;;0.22;95.21
35577;BME280;21680;52.400;16.920;2023-01-24T03:53:23;103077.43;;;0.20;94.98
35577;BME280;21680;52.400;16.920;2023-01-24T03:55:54;103079.27;;;0.18;94.79
35577;BME280;21680;52.400;16.920;2023-01-24T03:58:20;103077.94;;;0.15;94.91
35577;BME280;21680;52.400;16.920;2023-01-24T04:00:46;103077.81;;;0.17;95.03
35577;BME280;21680;52.400;16.920;2023-01-24T04:03:11;103079.96;;;0.17;95.05
35577;BME280;21680;52.400;16.920;2023-01-24T04:05:36;103081.16;;;0.17;94.91
35577;BME280;21680;52.400;16.920;2023-01-24T04:08:02;103077.64;;;0.17;95.03
35577;BME280;21680;52.400;16.920;2023-01-24T04:10:27;103077.10;;;0.16;95.00
35577;BME280;21680;52.400;16.920;2023-01-24T04:12:53;103074.63;;;0.16;95.02
35577;BME280;21680;52.400;16.920;2023-01-24T04:15:26;103070.64;;;0.17;95.00
35577;BME280;21680;52.400;16.920;2023-01-24T04:17:54;103074.25;;;0.20;95.03
35577;BME280;21680;52.400;16.920;2023-01-24T04:20:21;103073.88;;;0.19;95.00
35577;BME280;21680;52.400;16.920;2023-01-24T04:22:47;103069.87;;;0.20;94.94
35577;BME280;21680;52.400;16.920;2023-01-24T04:25:12;103073.30;;;0.23;94.96
35577;BME280;21680;52.400;16.920;2023-01-24T04:27:38;103068.73;;;0.22;94.86
35577;BME280;21680;52.400;16.920;2023-01-24T04:30:08;103068.98;;;0.20;94.79
35577;BME280;21680;52.400;16.920;2023-01-24T04:32:34;103068.08;;;0.19;94.98
35577;BME280;21680;52.400;16.920;2023-01-24T04:35:00;103063.10;;;0.18;94.88
35577;BME280;21680;52.400;16.920;2023-01-24T04:37:26;103061.11;;;0.17;94.88
35577;BME280;21680;52.400;16.920;2023-01-24T04:39:51;103056.92;;;0.13;94.88
35577;BME280;21680;52.400;16.920;2023-01-24T04:42:17;103054.81;;;0.13;95.03
35577;BME280;21680;52.400;16.920;2023-01-24T04:44:42;103051.25;;;0.12;94.84
35577;BME280;21680;52.400;16.920;2023-01-24T04:47:08;103052.52;;;0.12;94.87
35577;BME280;21680;52.400;16.920;2023-01-24T04:49:33;103047.80;;;0.13;95.01
35577;BME280;21680;52.400;16.920;2023-01-24T04:51:58;103051.56;;;0.15;94.85
35577;BME280;21680;52.400;16.920;2023-01-24T04:54:23;103050.16;;;0.15;94.83
35577;BME280;21680;52.400;16.920;2023-01-24T04:56:49;103053.16;;;0.16;94.85
35577;BME280;21680;52.400;16.920;2023-01-24T04:59:14;103056.42;;;0.13;94.83
35577;BME280;21680;52.400;16.920;2023-01-24T05:01:39;103056.75;;;0.13;94.78
35577;BME280;21680;52.400;16.920;2023-01-24T05:04:05;103056.16;;;0.11;94.68
35577;BME280;21680;52.400;16.920;2023-01-24T05:06:32;103054.48;;;0.09;94.78
35577;BME280;21680;52.400;16.920;2023-01-24T05:08:58;103056.50;;;0.06;94.73
35577;BME280;21680;52.400;16.920;2023-01-24T05:11:24;103057.92;;;0.07;94.94
35577;BME280;21680;52.400;16.920;2023-01-24T05:13:49;103063.09;;;0.09;94.94
35577;BME280;21680;52.400;16.920;2023-01-24T05:16:15;103069.84;;;0.10;94.98
35577;BME280;21680;52.400;16.920;2023-01-24T05:18:40;103073.48;;;0.09;94.63
35577;BME280;21680;52.400;16.920;2023-01-24T05:21:07;103071.01;;;0.04;94.77
35577;BME280;21680;52.400;16.920;2023-01-24T05:23:33;103081.29;;;0.02;94.79
35577;BME280;21680;52.400;16.920;2023-01-24T05:25:59;103081.94;;;-0.00;94.78
35577;BME280;21680;52.400;16.920;2023-01-24T05:28:25;103082.86;;;0.01;94.94
35577;BME280;21680;52.400;16.920;2023-01-24T05:30:50;103087.68;;;0.03;94.88
35577;BME280;21680;52.400;16.920;2023-01-24T05:33:15;103090.23;;;0.01;94.90
35577;BME280;21680;52.400;16.920;2023-01-24T05:35:40;103092.33;;;-0.05;94.90
35577;BME280;21680;52.400;16.920;2023-01-24T05:38:08;103095.75;;;-0.07;94.74
35577;BME280;21680;52.400;16.920;2023-01-24T05:40:33;103092.67;;;-0.09;94.78
35577;BME280;21680;52.400;16.920;2023-01-24T05:42:59;103095.49;;;-0.09;94.84
35577;BME280;21680;52.400;16.920;2023-01-24T05:45:24;103096.49;;;-0.10;94.88
35577;BME280;21680;52.400;16.920;2023-01-24T05:47:49;103100.52;;;-0.11;94.99
35577;BME280;21680;52.400;16.920;2023-01-24T05:50:15;103101.12;;;-0.09;94.94
35577;BME280;21680;52.400;16.920;2023-01-24T05:52:40;103100.84;;;-0.07;95.01
35577;BME280;21680;52.400;16.920;2023-01-24T05:55:06;103100.71;;;-0.10;94.78
35577;BME280;21680;52.400;16.920;2023-01-24T05:57:31;103106.52;;;-0.10;94.82
35577;BME280;21680;52.400;16.920;2023-01-24T05:59:56;103107.98;;;-0.08;94.97
35577;BME280;21680;52.400;16.920;2023-01-24T06:02:22;103113.42;;;-0.05;95.09
35577;BME280;21680;52.400;16.920;2023-01-24T06:04:47;103110.65;;;-0.03;94.93
35577;BME280;21680;52.400;16.920;2023-01-24T06:07:12;103105.05;;;-0.03;95.08
35577;BME280;21680;52.400;16.920;2023-01-24T06:09:37;103108.44;;;-0.02;94.98
35577;BME280;21680;52.400;16.920;2023-01-24T06:12:03;103102.51;;;-0.00;94.98
35577;BME280;21680;52.400;16.920;2023-01-24T06:14:29;103102.78;;;0.03;95.27
35577;BME280;21680;52.400;16.920;2023-01-24T06:16:54;103101.41;;;0.04;94.94
35577;BME280;21680;52.400;16.920;2023-01-24T06:19:19;103102.31;;;0.05;95.12
35577;BME280;21680;52.400;16.920;2023-01-24T06:21:47;103106.98;;;0.07;94.99
35577;BME280;21680;52.400;16.920;2023-01-24T06:26:43;103108.91;;;0.07;94.97
35577;BME280;21680;52.400;16.920;2023-01-24T06:29:10;103108.23;;;0.03;94.79
35577;BME280;21680;52.400;16.920;2023-01-24T06:31:46;103111.62;;;0.04;95.17
35577;BME280;21680;52.400;16.920;2023-01-24T06:37:21;103122.02;;;0.05;95.08
35577;BME280;21680;52.400;16.920;2023-01-24T06:39:52;103131.45;;;0.04;94.94
35577;BME280;21680;52.400;16.920;2023-01-24T06:42:22;103126.25;;;0.01;94.84
35577;BME280;21680;52.400;16.920;2023-01-24T06:44:47;103131.67;;;-0.01;94.84
35577;BME280;21680;52.400;16.920;2023-01-24T06:47:13;103126.99;;;-0.03;94.94
35577;BME280;21680;52.400;16.920;2023-01-24T06:49:39;103126.29;;;-0.08;94.90
35577;BME280;21680;52.400;16.920;2023-01-24T06:52:05;103132.69;;;-0.11;94.75
35577;BME280;21680;52.400;16.920;2023-01-24T06:54:30;103136.19;;;-0.11;94.90
35577;BME280;21680;52.400;16.920;2023-01-24T06:56:57;103139.69;;;-0.11;94.94
35577;BME280;21680;52.400;16.920;2023-01-24T06:59:22;103139.89;;;-0.11;94.90
35577;BME280;21680;52.400;16.920;2023-01-24T07:01:49;103140.36;;;-0.12;94.80
35577;BME280;21680;52.400;16.920;2023-01-24T07:04:14;103141.85;;;-0.10;94.92
35577;BME280;21680;52.400;16.920;2023-01-24T07:06:40;103143.22;;;-0.06;95.08
35577;BME280;21680;52.400;16.920;2023-01-24T07:09:05;103138.94;;;-0.04;95.06
35577;BME280;21680;52.400;16.920;2023-01-24T07:11:31;103143.11;;;-0.01;95.09
35577;BME280;21680;52.400;16.920;2023-01-24T07:13:56;103143.09;;;-0.01;95.01
35577;BME280;21680;52.400;16.920;2023-01-24T07:16:22;103143.52;;;-0.03;95.04
35577;BME280;21680;52.400;16.920;2023-01-24T07:18:47;103145.84;;;-0.03;94.86
35577;BME280;21680;52.400;16.920;2023-01-24T07:21:13;103149.75;;;-0.01;94.97
35577;BME280;21680;52.400;16.920;2023-01-24T07:23:43;103149.30;;;-0.04;94.80
35577;BME280;21680;52.400;16.920;2023-01-24T07:26:10;103156.13;;;-0.05;94.85
35577;BME280;21680;52.400;16.920;2023-01-24T07:28:37;103157.27;;;-0.02;95.18
35577;BME280;21680;52.400;16.920;2023-01-24T07:31:02;103160.77;;;0.02;95.08
35577;BME280;21680;52.400;16.920;2023-01-24T07:33:28;103158.23;;;0.00;94.93
35577;BME280;21680;52.400;16.920;2023-01-24T07:35:54;103161.34;;;-0.02;94.94
35577;BME280;21680;52.400;16.920;2023-01-24T07:38:19;103171.17;;;-0.02;94.88
35577;BME280;21680;52.400;16.920;2023-01-24T07:40:44;103169.87;;;0.02;95.07
35577;BME280;21680;52.400;16.920;2023-01-24T07:43:10;103172.64;;;-0.00;94.79
35577;BME280;21680;52.400;16.920;2023-01-24T07:45:35;103178.11;;;0.01;94.98
35577;BME280;21680;52.400;16.920;2023-01-24T07:48:04;103173.53;;;0.05;94.99
35577;BME280;21680;52.400;16.920;2023-01-24T07:50:29;103169.83;;;0.09;94.89
35577;BME280;21680;52.400;16.920;2023-01-24T07:52:56;103171.17;;;0.12;95.02
35577;BME280;21680;52.400;16.920;2023-01-24T07:55:23;103170.77;;;0.15;95.09
35577;BME280;21680;52.400;16.920;2023-01-24T07:57:48;103172.16;;;0.19;95.00
35577;BME280;21680;52.400;16.920;2023-01-24T08:00:15;103170.39;;;0.23;95.34
35577;BME280;21680;52.400;16.920;2023-01-24T08:02:41;103168.54;;;0.25;95.18
35577;BME280;21680;52.400;16.920;2023-01-24T08:05:07;103173.52;;;0.27;95.17
35577;BME280;21680;52.400;16.920;2023-01-24T08:07:33;103174.95;;;0.27;95.05
35577;BME280;21680;52.400;16.920;2023-01-24T08:09:58;103170.52;;;0.27;95.09
35577;BME280;21680;52.400;16.920;2023-01-24T08:12:23;103168.52;;;0.29;95.05
35577;BME280;21680;52.400;16.920;2023-01-24T08:14:49;103169.91;;;0.33;95.08
35577;BME280;21680;52.400;16.920;2023-01-24T08:17:14;103165.82;;;0.37;95.10
35577;BME280;21680;52.400;16.920;2023-01-24T08:19:40;103168.68;;;0.38;95.18
35577;BME280;21680;52.400;16.920;2023-01-24T08:22:06;103167.89;;;0.41;95.11
35577;BME280;21680;52.400;16.920;2023-01-24T08:24:32;103167.15;;;0.44;95.01
35577;BME280;21680;52.400;16.920;2023-01-24T08:26:59;103165.10;;;0.46;94.80
35577;BME280;21680;52.400;16.920;2023-01-24T08:29:25;103167.64;;;0.43;94.93
35577;BME280;21680;52.400;16.920;2023-01-24T08:31:50;103168.14;;;0.42;94.94
35577;BME280;21680;52.400;16.920;2023-01-24T08:34:15;103168.60;;;0.50;95.19
35577;BME280;21680;52.400;16.920;2023-01-24T08:36:41;103167.08;;;0.56;95.21
35577;BME280;21680;52.400;16.920;2023-01-24T08:39:06;103166.02;;;0.60;95.18
35577;BME280;21680;52.400;16.920;2023-01-24T08:41:31;103164.66;;;0.61;95.04
35577;BME280;21680;52.400;16.920;2023-01-24T08:43:56;103168.16;;;0.66;95.02
35577;BME280;21680;52.400;16.920;2023-01-24T08:46:22;103168.10;;;0.69;95.02
35577;BME280;21680;52.400;16.920;2023-01-24T08:48:48;103164.27;;;0.65;94.90
35577;BME280;21680;52.400;16.920;2023-01-24T08:51:13;103164.84;;;0.66;94.91
35577;BME280;21680;52.400;16.920;2023-01-24T08:53:38;103162.07;;;0.72;95.10
35577;BME280;21680;52.400;16.920;2023-01-24T08:56:04;103163.11;;;0.82;95.23
35577;BME280;21680;52.400;16.920;2023-01-24T08:58:30;103160.18;;;0.88;95.28
35577;BME280;21680;52.400;16.920;2023-01-24T09:00:59;103160.38;;;0.88;95.11
35577;BME280;21680;52.400;16.920;2023-01-24T09:03:24;103166.10;;;0.91;95.13
35577;BME280;21680;52.400;16.920;2023-01-24T09:05:55;103168.40;;;0.96;95.19
35577;BME280;21680;52.400;16.920;2023-01-24T09:08:21;103170.46;;;0.99;95.22
35577;BME280;21680;52.400;16.920;2023-01-24T09:10:47;103169.41;;;1.00;95.16
35577;BME280;21680;52.400;16.920;2023-01-24T09:13:13;103175.62;;;1.01;95.01
35577;BME280;21680;52.400;16.920;2023-01-24T09:15:38;103175.80;;;1.01;94.87
35577;BME280;21680;52.400;16.920;2023-01-24T09:18:04;103177.62;;;1.03;95.07
35577;BME280;21680;52.400;16.920;2023-01-24T09:20:29;103178.06;;;1.05;94.87
35577;BME280;21680;52.400;16.920;2023-01-24T09:22:54;103177.26;;;1.03;94.88
35577;BME280;21680;52.400;16.920;2023-01-24T09:25:20;103182.55;;;1.07;95.04
35577;BME280;21680;52.400;16.920;2023-01-24T09:27:53;103180.58;;;1.02;94.87
35577;BME280;21680;52.400;16.920;2023-01-24T09:30:18;103186.78;;;1.08;95.01
35577;BME280;21680;52.400;16.920;2023-01-24T09:32:44;103188.52;;;1.12;94.81
35577;BME280;21680;52.400;16.920;2023-01-24T09:35:09;103192.83;;;1.14;94.95
35577;BME280;21680;52.400;16.920;2023-01-24T09:37:34;103194.60;;;1.14;94.90
35577;BME280;21680;52.400;16.920;2023-01-24T09:40:00;103197.69;;;1.17;94.86
35577;BME280;21680;52.400;16.920;2023-01-24T09:42:41;103198.46;;;1.14;94.85
35577;BME280;21680;52.400;16.920;2023-01-24T09:45:24;103202.77;;;1.11;94.90
35577;BME280;21680;52.400;16.920;2023-01-24T09:47:59;103204.65;;;1.15;95.00
35577;BME280;21680;52.400;16.920;2023-01-24T09:53:04;103205.52;;;1.15;94.75
35577;BME280;21680;52.400;16.920;2023-01-24T09:55:34;103207.44;;;1.14;94.82
35577;BME280;21680;52.400;16.920;2023-01-24T09:58:35;103206.55;;;1.19;94.82
35577;BME280;21680;52.400;16.920;2023-01-24T10:01:13;103206.27;;;1.21;94.80
35577;BME280;21680;52.400;16.920;2023-01-24T10:03:40;103206.95;;;1.20;94.66
35577;BME280;21680;52.400;16.920;2023-01-24T10:06:33;103205.48;;;1.23;94.77
35577;BME280;21680;52.400;16.920;2023-01-24T10:09:10;103205.69;;;1.24;94.76
35577;BME280;21680;52.400;16.920;2023-01-24T10:12:07;103204.94;;;1.23;94.59
35577;BME280;21680;52.400;16.920;2023-01-24T10:23:08;103200.09;;;1.25;94.49
35577;BME280;21680;52.400;16.920;2023-01-24T10:25:50;103198.52;;;1.25;94.51
35577;BME280;21680;52.400;16.920;2023-01-24T10:28:36;103197.39;;;1.28;94.63
35577;BME280;21680;52.400;16.920;2023-01-24T10:31:24;103193.58;;;1.35;94.57
35577;BME280;21680;52.400;16.920;2023-01-24T10:33:55;103192.88;;;1.40;94.69
35577;BME280;21680;52.400;16.920;2023-01-24T10:36:45;103186.52;;;1.45;94.59
35577;BME280;21680;52.400;16.920;2023-01-24T10:39:13;103182.33;;;1.51;94.76
35577;BME280;21680;52.400;16.920;2023-01-24T10:41:39;103174.48;;;1.53;94.43
35577;BME280;21680;52.400;16.920;2023-01-24T10:44:19;103173.73;;;1.47;94.33
35577;BME280;21680;52.400;16.920;2023-01-24T10:50:01;103170.94;;;1.43;94.48
35577;BME280;21680;52.400;16.920;2023-01-24T10:52:26;103166.18;;;1.53;94.51
35577;BME280;21680;52.400;16.920;2023-01-24T10:55:03;103160.50;;;1.56;94.53
35577;BME280;21680;52.400;16.920;2023-01-24T10:57:53;103157.20;;;1.69;94.68
35577;BME280;21680;52.400;16.920;2023-01-24T11:00:25;103161.16;;;1.66;94.32
35577;BME280;21680;52.400;16.920;2023-01-24T11:02:55;103165.25;;;1.56;94.22
35577;BME280;21680;52.400;16.920;2023-01-24T11:05:22;103167.04;;;1.47;93.84
35577;BME280;21680;52.400;16.920;2023-01-24T11:07:54;103169.23;;;1.39;93.96
35577;BME280;21680;52.400;16.920;2023-01-24T11:10:30;103167.19;;;1.36;93.96
35577;BME280;21680;52.400;16.920;2023-01-24T11:13:01;103163.97;;;1.35;93.88
35577;BME280;21680;52.400;16.920;2023-01-24T11:15:33;103162.50;;;1.38;93.98
35577;BME280;21680;52.400;16.920;2023-01-24T11:20:38;103160.91;;;1.43;94.19
35577;BME280;21680;52.400;16.920;2023-01-24T11:23:15;103160.61;;;1.49;94.02
35577;BME280;21680;52.400;16.920;2023-01-24T11:30:49;103152.77;;;1.47;93.59
35577;BME280;21680;52.400;16.920;2023-01-24T11:36:11;103155.08;;;1.47;93.89
35577;BME280;21680;52.400;16.920;2023-01-24T11:38:43;103152.00;;;1.50;93.78
35577;BME280;21680;52.400;16.920;2023-01-24T11:41:10;103154.56;;;1.48;93.68
35577;BME280;21680;52.400;16.920;2023-01-24T11:49:14;103134.83;;;1.58;93.74
35577;BME280;21680;52.400;16.920;2023-01-24T11:51:54;103128.33;;;1.53;93.36
35577;BME280;21680;52.400;16.920;2023-01-24T11:54:44;103128.02;;;1.55;93.57
35577;BME280;21680;52.400;16.920;2023-01-24T11:57:47;103131.54;;;1.60;93.59
35577;BME280;21680;52.400;16.920;2023-01-24T12:00:44;103128.98;;;1.62;93.62
35577;BME280;21680;52.400;16.920;2023-01-24T12:03:23;103126.87;;;1.68;93.62
35577;BME280;21680;52.400;16.920;2023-01-24T12:13:49;103112.87;;;1.82;93.57
35577;BME280;21680;52.400;16.920;2023-01-24T12:19:23;103104.25;;;1.88;93.51
35577;BME280;21680;52.400;16.920;2023-01-24T12:21:57;103101.46;;;1.95;93.67
35577;BME280;21680;52.400;16.920;2023-01-24T12:24:27;103102.83;;;2.05;93.84
35577;BME280;21680;52.400;16.920;2023-01-24T12:26:59;103099.47;;;2.16;93.66
35577;BME280;21680;52.400;16.920;2023-01-24T12:32:23;103087.63;;;2.33;93.81
35577;BME280;21680;52.400;16.920;2023-01-24T12:35:19;103088.09;;;2.42;93.72
35577;BME280;21680;52.400;16.920;2023-01-24T12:43:19;103085.16;;;2.57;93.52
35577;BME280;21680;52.400;16.920;2023-01-24T12:46:13;103081.23;;;2.55;93.42
35577;BME280;21680;52.400;16.920;2023-01-24T12:51:47;103084.98;;;2.51;93.30
35577;BME280;21680;52.400;16.920;2023-01-24T12:54:20;103091.64;;;2.62;93.60
35577;BME280;21680;52.400;16.920;2023-01-24T12:56:56;103100.42;;;2.68;93.52
35577;BME280;21680;52.400;16.920;2023-01-24T12:59:27;103104.03;;;2.70;93.33
35577;BME280;21680;52.400;16.920;2023-01-24T13:02:06;103106.56;;;2.66;93.04
35577;BME280;21680;52.400;16.920;2023-01-24T13:04:49;103113.07;;;2.52;92.73
35577;BME280;21680;52.400;16.920;2023-01-24T13:10:29;103108.23;;;2.49;92.67
35577;BME280;21680;52.400;16.920;2023-01-24T13:12:59;103104.08;;;2.34;92.34
35577;BME280;21680;52.400;16.920;2023-01-24T13:15:55;103101.66;;;2.24;92.45
35577;BME280;21680;52.400;16.920;2023-01-24T13:18:54;103103.63;;;2.25;92.40
35577;BME280;21680;52.400;16.920;2023-01-24T13:21:36;103103.91;;;2.28;92.62
35577;BME280;21680;52.400;16.920;2023-01-24T13:32:30;103100.23;;;2.29;92.12
35577;BME280;21680;52.400;16.920;2023-01-24T13:34:58;103104.83;;;2.18;92.13
35577;BME280;21680;52.400;16.920;2023-01-24T13:37:30;103101.86;;;2.13;92.07
35577;BME280;21680;52.400;16.920;2023-01-24T13:42:40;103104.77;;;2.04;91.88
35577;BME280;21680;52.400;16.920;2023-01-24T13:47:58;103102.04;;;1.80;91.35
35577;BME280;21680;52.400;16.920;2023-01-24T13:50:25;103100.58;;;1.78;91.48
35577;BME280;21680;52.400;16.920;2023-01-24T13:52:55;103099.16;;;1.78;91.80
35577;BME280;21680;52.400;16.920;2023-01-24T13:57:49;103096.45;;;1.81;91.35
35577;BME280;21680;52.400;16.920;2023-01-24T14:00:19;103093.27;;;1.81;91.44
35577;BME280;21680;52.400;16.920;2023-01-24T14:07:58;103093.33;;;1.77;91.29
35577;BME280;21680;52.400;16.920;2023-01-24T14:10:48;103094.65;;;1.75;91.22
35577;BME280;21680;52.400;16.920;2023-01-24T14:22:01;103092.73;;;1.48;90.84
35577;BME280;21680;52.400;16.920;2023-01-24T14:27:18;103086.11;;;1.45;90.87
35577;BME280;21680;52.400;16.920;2023-01-24T14:29:47;103087.66;;;1.44;90.71
35577;BME280;21680;52.400;16.920;2023-01-24T14:37:46;103083.59;;;1.33;90.43
35577;BME280;21680;52.400;16.920;2023-01-24T14:40:18;103078.54;;;1.29;90.42
35577;BME280;21680;52.400;16.920;2023-01-24T14:42:45;103079.57;;;1.28;90.40
35577;BME280;21680;52.400;16.920;2023-01-24T14:45:16;103078.77;;;1.25;90.34
35577;BME280;21680;52.400;16.920;2023-01-24T14:47:45;103080.17;;;1.21;90.13